createdAt,value
2018-12-22T00:01:08.930Z,100508.84
2018-12-22T00:03:37.835Z,100502.97
2018-12-22T00:06:06.626Z,100505.66
2018-12-22T00:08:35.522Z,100502.11
2018-12-22T00:11:04.875Z,100494.03
2018-12-22T00:13:33.595Z,100492.20
2018-12-22T00:16:03.577Z,100480.86
2018-12-22T00:18:32.282Z,100485.11
2018-12-22T00:21:00.948Z,100482.41
2018-12-22T00:23:29.619Z,100479.23
2018-12-22T00:25:58.408Z,100481.07
2018-12-22T00:28:27.054Z,100482.41
2018-12-22T00:30:55.867Z,100476.55
2018-12-22T00:33:24.503Z,100475.35
2018-12-22T00:35:53.132Z,100477.03
2018-12-22T00:38:21.726Z,100478.05
2018-12-22T00:40:50.440Z,100476.70
2018-12-22T00:43:19.128Z,100475.20
2018-12-22T00:45:47.717Z,100478.38
2018-12-22T00:48:16.523Z,100474.01
2018-12-22T00:50:45.262Z,100475.69
2018-12-22T00:53:14.004Z,100476.17
2018-12-22T00:55:42.663Z,100477.03
2018-12-22T00:58:11.316Z,100469.97
2018-12-22T01:00:40.095Z,100474.83
2018-12-22T01:03:08.920Z,100474.01
2018-12-22T01:05:37.743Z,100467.28
2018-12-22T01:08:06.407Z,100467.77
2018-12-22T01:10:35.120Z,100469.97
2018-12-22T01:13:04.336Z,100464.59
2018-12-22T01:15:33.152Z,100463.24
2018-12-22T01:18:01.941Z,100470.45
2018-12-22T01:20:30.851Z,100465.56
2018-12-22T01:22:59.671Z,100462.51
2018-12-22T01:25:28.306Z,100464.22
2018-12-22T01:27:57.324Z,100464.71
2018-12-22T01:30:26.129Z,100460.19
2018-12-22T01:32:55.531Z,100459.33
2018-12-22T01:35:24.514Z,100452.76
2018-12-22T01:37:54.257Z,100448.72
2018-12-22T01:40:23.142Z,100448.72
2018-12-22T01:42:52.106Z,100443.83
2018-12-22T01:45:21.051Z,100440.28
2018-12-22T01:47:49.740Z,100443.98
2018-12-22T01:50:18.774Z,100448.02
2018-12-22T01:52:47.634Z,100438.60
2018-12-22T01:55:16.267Z,100435.70
2018-12-22T01:57:44.964Z,100431.14
2018-12-22T02:00:14.046Z,100434.35
2018-12-22T02:02:42.805Z,100438.88
2018-12-22T02:05:11.406Z,100437.17
2018-12-22T02:07:40.200Z,100429.95
2018-12-22T02:10:08.881Z,100436.19
2018-12-22T02:12:37.687Z,100430.80
2018-12-22T02:15:06.620Z,100433.13
2018-12-22T02:17:35.387Z,100434.84
2018-12-22T02:20:05.111Z,100433.50
2018-12-22T02:22:33.752Z,100435.33
2018-12-22T02:25:02.452Z,100430.80
2018-12-22T02:27:31.288Z,100428.97
2018-12-22T02:29:59.933Z,100416.50
2018-12-22T02:32:28.921Z,100423.72
2018-12-22T02:34:57.677Z,100433.50
2018-12-22T02:37:26.511Z,100420.90
2018-12-22T02:39:55.195Z,100419.55
2018-12-22T02:42:23.841Z,100420.53
2018-12-22T02:44:52.826Z,100415.52
2018-12-22T02:47:21.743Z,100410.91
2018-12-22T02:49:50.443Z,100417.35
2018-12-22T02:52:19.235Z,100418.20
2018-12-22T02:54:48.227Z,100416.34
2018-12-22T02:57:17.179Z,100413.80
2018-12-22T02:59:45.783Z,100411.12
2018-12-22T03:02:14.503Z,100412.95
2018-12-22T03:04:43.538Z,100408.91
2018-12-22T03:07:12.316Z,100405.37
2018-12-22T03:09:41.021Z,100403.20
2018-12-22T03:12:09.774Z,100408.91
2018-12-22T03:14:38.445Z,100407.56
2018-12-22T03:17:07.160Z,100408.58
2018-12-22T03:19:35.905Z,100408.05
2018-12-22T03:22:04.703Z,100405.03
2018-12-22T03:24:33.397Z,100406.72
2018-12-22T03:27:02.064Z,100402.83
2018-12-22T03:29:30.656Z,100406.37
2018-12-22T03:31:59.470Z,100404.18
2018-12-22T03:34:28.280Z,100404.18
2018-12-22T03:36:57.018Z,100406.72
2018-12-22T03:39:25.703Z,100407.73
2018-12-22T03:41:54.805Z,100408.58
2018-12-22T03:44:23.722Z,100404.02
2018-12-22T03:46:52.653Z,100402.83
2018-12-22T03:49:21.368Z,100407.73
2018-12-22T03:51:50.280Z,100402.34
2018-12-22T03:54:19.217Z,100400.63
2018-12-22T03:56:48.203Z,100398.31
2018-12-22T03:59:24.835Z,100397.81
2018-12-22T04:01:47.627Z,100400.51
2018-12-22T04:04:16.226Z,100406.22
2018-12-22T04:06:44.807Z,100400.35
2018-12-22T04:09:13.554Z,100405.58
2018-12-22T04:11:42.188Z,100400.20
2018-12-22T04:14:10.996Z,100398.03
2018-12-22T04:16:40.085Z,100393.47
2018-12-22T04:19:08.851Z,100397.23
2018-12-22T04:21:37.696Z,100397.72
2018-12-22T04:24:06.750Z,100395.88
2018-12-22T04:26:35.764Z,100394.05
2018-12-22T04:29:04.990Z,100389.86
2018-12-22T04:31:33.841Z,100395.76
2018-12-22T04:34:02.685Z,100392.55
2018-12-22T04:36:31.251Z,100388.51
2018-12-22T04:38:59.953Z,100392.55
2018-12-22T04:41:28.794Z,100389.36
2018-12-22T04:43:57.421Z,100387.16
2018-12-22T04:46:26.021Z,100387.53
2018-12-22T04:48:54.689Z,100384.34
2018-12-22T04:51:23.398Z,100383.00
2018-12-22T04:53:52.001Z,100380.80
2018-12-22T04:56:20.656Z,100381.98
2018-12-22T04:58:49.353Z,100376.61
2018-12-22T05:01:18.072Z,100382.52
2018-12-22T05:03:46.904Z,100377.46
2018-12-22T05:06:15.600Z,100376.61
2018-12-22T05:08:44.392Z,100375.78
2018-12-22T05:11:13.275Z,100372.23
2018-12-22T05:13:42.173Z,100371.75
2018-12-22T05:16:10.994Z,100373.92
2018-12-22T05:18:39.854Z,100370.41
2018-12-22T05:21:08.536Z,100373.09
2018-12-22T05:23:37.369Z,100375.42
2018-12-22T05:26:06.151Z,100378.59
2018-12-22T05:28:35.013Z,100381.66
2018-12-22T05:31:04.134Z,100371.88
2018-12-22T05:33:33.198Z,100370.53
2018-12-22T05:36:02.096Z,100372.03
2018-12-22T05:38:30.703Z,100372.89
2018-12-22T05:40:59.670Z,100375.42
2018-12-22T05:43:28.392Z,100371.54
2018-12-22T05:45:57.358Z,100371.54
2018-12-22T05:48:25.996Z,100381.30
2018-12-22T05:50:54.716Z,100377.41
2018-12-22T05:53:23.308Z,100381.45
2018-12-22T05:55:52.052Z,100380.95
2018-12-22T05:58:21.143Z,100381.94
2018-12-22T06:00:49.732Z,100382.43
2018-12-22T06:03:18.473Z,100386.83
2018-12-22T06:05:47.460Z,100385.48
2018-12-22T06:08:16.314Z,100386.47
2018-12-22T06:10:45.361Z,100385.48
2018-12-22T06:13:14.036Z,100387.81
2018-12-22T06:15:42.771Z,100386.47
2018-12-22T06:18:11.616Z,100378.06
2018-12-22T06:20:40.303Z,100384.62
2018-12-22T06:23:09.321Z,100385.12
2018-12-22T06:25:38.371Z,100386.47
2018-12-22T06:28:07.232Z,100386.47
2018-12-22T06:30:36.038Z,100388.30
2018-12-22T06:33:04.631Z,100389.64
2018-12-22T06:35:33.523Z,100383.44
2018-12-22T06:38:02.554Z,100380.75
2018-12-22T06:40:31.222Z,100385.61
2018-12-22T06:42:59.853Z,100386.13
2018-12-22T06:45:28.703Z,100385.77
2018-12-22T06:47:57.659Z,100395.55
2018-12-22T06:50:26.390Z,100383.02
2018-12-22T06:52:55.342Z,100389.31
2018-12-22T06:55:24.321Z,100390.66
2018-12-22T06:57:53.055Z,100392.33
2018-12-22T07:00:21.872Z,100396.37
2018-12-22T07:02:50.611Z,100400.93
2018-12-22T07:05:19.697Z,100400.08
2018-12-22T07:07:48.382Z,100400.08
2018-12-22T07:10:17.799Z,100405.79
2018-12-22T07:12:46.419Z,100407.66
2018-12-22T07:15:15.203Z,100407.66
2018-12-22T07:17:43.996Z,100405.45
2018-12-22T07:20:12.851Z,100413.04
2018-12-22T07:22:41.719Z,100417.41
2018-12-22T07:25:10.676Z,100412.52
2018-12-22T07:27:39.732Z,100421.94
2018-12-22T07:30:10.636Z,100419.24
2018-12-22T07:32:39.539Z,100425.48
2018-12-22T07:35:08.531Z,100423.64
2018-12-22T07:37:37.123Z,100420.95
2018-12-22T07:40:06.075Z,100422.79
2018-12-22T07:42:35.020Z,100427.68
2018-12-22T07:45:03.792Z,100430.86
2018-12-22T07:47:32.711Z,100427.68
2018-12-22T07:50:01.791Z,100437.95
2018-12-22T07:52:30.624Z,100438.94
2018-12-22T07:54:59.223Z,100436.24
2018-12-22T07:57:28.526Z,100440.64
2018-12-22T07:59:57.370Z,100441.99
2018-12-22T08:02:26.302Z,100438.81
2018-12-22T08:04:55.200Z,100442.33
2018-12-22T08:07:23.843Z,100442.84
2018-12-22T08:09:52.759Z,100441.99
2018-12-22T08:12:21.847Z,100440.64
2018-12-22T08:14:50.784Z,100436.24
2018-12-22T08:17:19.739Z,100444.20
2018-12-22T08:19:48.663Z,100440.64
2018-12-22T08:22:17.389Z,100441.13
2018-12-22T08:24:46.185Z,100424.08
2018-12-22T08:27:14.998Z,100428.97
2018-12-22T08:29:43.791Z,100430.86
2018-12-22T08:32:12.709Z,100429.18
2018-12-22T08:34:41.694Z,100429.18
2018-12-22T08:37:10.678Z,100429.67
2018-12-22T08:39:39.550Z,100437.25
2018-12-22T08:42:08.413Z,100432.00
2018-12-22T08:44:37.061Z,100438.72
2018-12-22T08:47:05.789Z,100438.60
2018-12-22T08:49:34.555Z,100439.21
2018-12-22T08:52:03.516Z,100443.13
2018-12-22T08:54:32.320Z,100437.74
2018-12-22T08:57:00.994Z,100442.11
2018-12-22T08:59:29.702Z,100439.95
2018-12-22T09:01:58.571Z,100439.42
2018-12-22T09:04:27.228Z,100441.13
2018-12-22T09:06:55.917Z,100438.94
2018-12-22T09:09:24.568Z,100444.20
2018-12-22T09:11:53.532Z,100449.58
2018-12-22T09:14:22.246Z,100444.20
2018-12-22T09:16:50.868Z,100444.69
2018-12-22T09:19:19.824Z,100439.80
2018-12-22T09:21:48.584Z,100446.88
2018-12-22T09:24:17.380Z,100442.97
2018-12-22T09:26:46.078Z,100442.48
2018-12-22T09:29:14.911Z,100438.94
2018-12-22T09:31:43.860Z,100446.52
2018-12-22T09:34:13.490Z,100444.69
2018-12-22T09:36:42.749Z,100451.90
2018-12-22T09:39:11.420Z,100452.76
2018-12-22T09:41:40.355Z,100445.66
2018-12-22T09:44:09.608Z,100445.66
2018-12-22T09:46:38.558Z,100450.55
2018-12-22T09:49:07.344Z,100457.77
2018-12-22T09:51:36.405Z,100457.77
2018-12-22T09:54:05.304Z,100452.39
2018-12-22T09:56:34.316Z,100455.94
2018-12-22T09:59:03.001Z,100452.39
2018-12-22T10:01:31.687Z,100450.70
2018-12-22T10:04:00.363Z,100455.56
2018-12-22T10:06:29.040Z,100450.55
2018-12-22T10:08:57.784Z,100454.59
2018-12-22T10:11:26.641Z,100449.00
2018-12-22T10:13:55.390Z,100450.06
2018-12-22T10:16:24.095Z,100450.55
2018-12-22T10:18:53.007Z,100453.25
2018-12-22T10:21:21.811Z,100455.45
2018-12-22T10:23:50.686Z,100458.14
2018-12-22T10:26:19.448Z,100452.27
2018-12-22T10:28:48.122Z,100454.09
2018-12-22T10:31:18.151Z,100458.14
2018-12-22T10:33:47.097Z,100461.31
2018-12-22T10:36:15.938Z,100464.86
2018-12-22T10:38:44.639Z,100467.55
2018-12-22T10:41:13.262Z,100467.06
2018-12-22T10:43:42.098Z,100468.91
2018-12-22T10:46:11.145Z,100471.11
2018-12-22T10:48:40.061Z,100475.96
2018-12-22T10:51:08.798Z,100470.95
2018-12-22T10:53:37.453Z,100468.63
2018-12-22T10:56:06.082Z,100471.65
2018-12-22T10:58:35.106Z,100466.76
2018-12-22T11:01:03.914Z,100476.05
2018-12-22T11:03:32.636Z,100472.02
2018-12-22T11:06:01.321Z,100471.04
2018-12-22T11:08:30.222Z,100477.24
2018-12-22T11:10:58.876Z,100475.08
2018-12-22T11:13:27.648Z,100478.10
2018-12-22T11:15:56.421Z,100472.72
2018-12-22T11:18:25.383Z,100475.78
2018-12-22T11:20:54.273Z,100478.95
2018-12-22T11:23:22.904Z,100485.20
2018-12-22T11:25:51.903Z,100478.95
2018-12-22T11:28:20.646Z,100491.92
2018-12-22T11:30:49.485Z,100488.75
2018-12-22T11:33:18.413Z,100487.40
2018-12-22T11:35:47.084Z,100492.26
2018-12-22T11:38:15.755Z,100501.19
2018-12-22T11:40:44.577Z,100499.84
2018-12-22T11:43:13.394Z,100500.21
2018-12-22T11:45:42.423Z,100499.36
2018-12-22T11:48:23.197Z,100498.50
2018-12-22T11:50:52.356Z,100498.50
2018-12-22T11:53:21.444Z,100505.23
2018-12-22T11:55:50.398Z,100498.98
2018-12-22T12:05:08.509Z,100501.31
2018-12-22T12:07:37.276Z,100508.95
2018-12-22T12:10:08.410Z,100514.70
2018-12-22T12:12:37.503Z,100515.90
2018-12-22T12:15:11.375Z,100517.12
2018-12-22T12:19:50.348Z,100518.31
2018-12-22T12:22:19.237Z,100517.77
2018-12-22T12:24:48.018Z,100519.38
2018-12-22T12:27:16.816Z,100518.37
2018-12-22T12:29:45.487Z,100516.91
2018-12-22T12:32:14.450Z,100517.77
2018-12-22T12:34:43.429Z,100517.98
2018-12-22T12:37:12.329Z,100523.36
2018-12-22T12:39:41.225Z,100523.36
2018-12-22T12:42:10.136Z,100524.55
2018-12-22T12:44:42.386Z,100523.21
2018-12-22T12:47:11.660Z,100527.61
2018-12-22T12:49:40.772Z,100525.41
2018-12-22T12:52:09.490Z,100528.95
2018-12-22T12:54:38.364Z,100532.47
2018-12-22T12:57:07.344Z,100533.00
2018-12-22T12:59:36.244Z,100535.16
2018-12-22T13:02:07.068Z,100535.16
2018-12-22T13:04:36.037Z,100535.16
2018-12-22T13:07:05.020Z,100512.83
2018-12-22T13:09:33.800Z,100541.77
2018-12-22T13:12:09.390Z,100536.02
2018-12-22T13:14:38.485Z,100541.77
2018-12-22T13:17:07.433Z,100544.09
2018-12-22T13:19:36.279Z,100542.26
2018-12-22T13:22:05.077Z,100546.30
2018-12-22T13:24:34.069Z,100547.64
2018-12-22T13:27:02.903Z,100545.44
2018-12-22T13:29:31.617Z,100554.37
2018-12-22T13:32:00.556Z,100552.17
2018-12-22T13:34:29.443Z,100554.37
2018-12-22T13:36:58.261Z,100554.00
2018-12-22T13:39:28.764Z,100547.27
2018-12-22T13:41:57.632Z,100550.33
2018-12-22T13:44:27.295Z,100554.52
2018-12-22T13:46:56.203Z,100549.97
2018-12-22T13:49:25.127Z,100558.04
2018-12-22T13:51:54.316Z,100555.34
2018-12-22T13:54:25.293Z,100551.83
2018-12-22T13:56:54.421Z,100561.73
2018-12-22T13:59:23.466Z,100563.42
2018-12-22T14:01:58.675Z,100567.45
2018-12-22T14:04:27.975Z,100564.43
2018-12-22T14:06:56.967Z,100564.43
2018-12-22T14:09:25.910Z,100564.92
2018-12-22T14:11:54.599Z,100572.50
2018-12-22T14:14:28.420Z,100577.40
2018-12-22T14:17:03.452Z,100581.92
2018-12-22T14:19:33.043Z,100586.45
2018-12-22T14:22:01.853Z,100588.65
2018-12-22T14:24:44.257Z,100590.00
2018-12-22T14:27:13.106Z,100590.97
2018-12-22T14:29:42.160Z,100598.06
2018-12-22T14:32:11.088Z,100600.88
2018-12-22T14:34:49.744Z,100594.67
2018-12-22T14:37:18.505Z,100597.70
2018-12-22T14:39:47.401Z,100597.36
2018-12-22T14:42:16.280Z,100596.99
2018-12-22T14:44:45.479Z,100597.14
2018-12-22T14:47:14.553Z,100600.66
2018-12-22T14:49:43.613Z,100612.43
2018-12-22T14:52:12.260Z,100605.70
2018-12-22T14:54:41.250Z,100618.30
2018-12-22T14:57:11.987Z,100615.12
2018-12-22T14:59:41.183Z,100614.75
2018-12-22T15:02:10.126Z,100616.09
2018-12-22T15:04:38.964Z,100616.09
2018-12-22T15:07:08.500Z,100613.89
2018-12-22T15:09:37.500Z,100605.48
2018-12-22T15:12:06.617Z,100609.86
2018-12-22T15:14:35.698Z,100614.41
2018-12-22T15:17:04.719Z,100604.14
2018-12-22T15:19:36.151Z,100606.83
2018-12-22T15:22:06.564Z,100607.69
2018-12-22T15:24:35.725Z,100605.82
2018-12-22T15:27:04.840Z,100610.37
2018-12-22T15:29:33.887Z,100613.07
2018-12-22T15:32:02.552Z,100617.93
2018-12-22T15:34:31.331Z,100623.83
2018-12-22T15:37:00.021Z,100627.02
2018-12-22T15:39:28.706Z,100626.52
2018-12-22T15:41:57.329Z,100624.17
2018-12-22T15:44:26.139Z,100630.56
2018-12-22T15:46:55.153Z,100639.45
2018-12-22T15:49:24.429Z,100643.86
2018-12-22T15:51:53.376Z,100647.41
2018-12-22T15:54:22.375Z,100637.29
2018-12-22T15:56:51.236Z,100639.98
2018-12-22T15:59:20.263Z,100644.50
2018-12-22T16:01:49.127Z,100644.02
2018-12-22T16:04:17.926Z,100644.50
2018-12-22T16:06:46.687Z,100647.19
2018-12-22T16:09:15.709Z,100649.02
2018-12-22T16:11:44.777Z,100649.02
2018-12-22T16:14:14.112Z,100646.82
2018-12-22T16:16:42.932Z,100651.34
2018-12-22T16:19:12.947Z,100653.06
2018-12-22T16:21:41.931Z,100657.47
2018-12-22T16:24:11.215Z,100656.73
2018-12-22T16:26:40.312Z,100658.44
2018-12-22T16:29:13.898Z,100656.73
2018-12-22T16:31:42.677Z,100655.91
2018-12-22T16:34:11.494Z,100654.41
2018-12-22T16:36:40.576Z,100657.58
2018-12-22T16:39:09.794Z,100657.25
2018-12-22T16:41:38.781Z,100662.11
2018-12-22T16:44:10.757Z,100659.41
2018-12-22T16:46:39.544Z,100667.48
2018-12-22T16:49:08.449Z,100672.38
2018-12-22T16:51:37.330Z,100668.83
2018-12-22T16:54:06.248Z,100671.03
2018-12-22T16:56:35.341Z,100674.09
2018-12-22T16:59:04.475Z,100667.48
2018-12-22T17:02:12.164Z,100672.75
2018-12-22T17:04:41.175Z,100672.05
2018-12-22T17:07:09.988Z,100676.56
2018-12-22T17:09:39.191Z,100683.14
2018-12-22T17:12:08.836Z,100681.68
2018-12-22T17:14:37.760Z,100676.08
2018-12-22T17:17:06.857Z,100677.50
2018-12-22T17:19:35.844Z,100678.84
2018-12-22T17:22:08.546Z,100674.66
2018-12-22T17:24:48.528Z,100680.41
2018-12-22T17:27:17.451Z,100680.26
2018-12-22T17:29:46.609Z,100676.74
2018-12-22T17:32:15.601Z,100680.78
2018-12-22T17:34:44.462Z,100669.50
2018-12-22T17:37:15.022Z,100676.59
2018-12-22T17:39:43.847Z,100676.11
2018-12-22T17:42:13.020Z,100678.31
2018-12-22T17:44:41.923Z,100673.42
2018-12-22T17:47:11.614Z,100674.28
2018-12-22T17:49:40.414Z,100671.06
2018-12-22T17:52:09.464Z,100677.80
2018-12-22T17:54:38.337Z,100680.48
2018-12-22T17:57:07.387Z,100679.99
2018-12-22T17:59:36.334Z,100679.50
2018-12-22T18:02:05.339Z,100684.52
2018-12-22T18:04:34.244Z,100691.24
2018-12-22T18:07:03.261Z,100688.92
2018-12-22T18:09:32.183Z,100679.02
2018-12-22T18:12:01.148Z,100684.03
2018-12-22T18:14:30.171Z,100690.76
2018-12-22T18:16:59.141Z,100689.78
2018-12-22T18:19:29.196Z,100684.89
2018-12-22T18:21:58.357Z,100690.76
2018-12-22T18:24:27.295Z,100688.44
2018-12-22T18:26:56.379Z,100694.31
2018-12-22T18:29:25.231Z,100697.00
2018-12-22T18:31:53.946Z,100697.00
2018-12-22T18:34:22.804Z,100697.97
2018-12-22T18:36:52.240Z,100710.94
2018-12-22T18:39:22.215Z,100709.59
2018-12-22T18:41:51.012Z,100710.94
2018-12-22T18:44:19.730Z,100719.50
2018-12-22T18:46:48.761Z,100707.91
2018-12-22T18:49:17.512Z,100711.43
2018-12-22T18:51:46.484Z,100713.30
2018-12-22T18:54:15.749Z,100710.60
2018-12-22T18:56:44.808Z,100708.41
2018-12-22T18:59:14.275Z,100711.43
2018-12-22T19:01:43.118Z,100718.68
2018-12-22T19:04:12.089Z,100720.84
2018-12-22T19:06:41.023Z,100714.64
2018-12-22T19:09:13.727Z,100715.98
2018-12-22T19:11:42.882Z,100715.98
2018-12-22T19:14:12.879Z,100709.26
2018-12-22T19:16:41.544Z,100714.13
2018-12-22T19:19:10.510Z,100709.75
2018-12-22T19:21:39.385Z,100709.75
2018-12-22T19:24:08.310Z,100713.78
2018-12-22T19:26:38.088Z,100713.30
2018-12-22T19:29:07.186Z,100717.33
2018-12-22T19:31:41.704Z,100721.37
2018-12-22T19:34:07.173Z,100722.19
2018-12-22T19:36:36.118Z,100727.23
2018-12-22T19:39:06.723Z,100726.38
2018-12-22T19:41:35.645Z,100738.48
2018-12-22T19:44:04.795Z,100737.14
2018-12-22T19:46:33.825Z,100741.55
2018-12-22T19:49:02.632Z,100735.31
2018-12-22T19:51:31.753Z,100731.77
2018-12-22T19:54:00.716Z,100737.14
2018-12-22T19:56:29.681Z,100733.97
2018-12-22T19:58:58.754Z,100729.93
2018-12-22T20:01:27.735Z,100735.80
2018-12-22T20:04:02.020Z,100728.21
2018-12-22T20:06:27.468Z,100729.56
2018-12-22T20:08:56.571Z,100726.87
2018-12-22T20:11:25.761Z,100736.28
2018-12-22T20:13:55.668Z,100736.28
2018-12-22T20:16:24.432Z,100736.28
2018-12-22T20:18:53.559Z,100736.66
2018-12-22T20:21:22.292Z,100733.59
2018-12-22T20:23:51.220Z,100736.66
2018-12-22T20:26:20.946Z,100734.94
2018-12-22T20:28:49.952Z,100738.00
2018-12-22T20:31:18.917Z,100738.48
2018-12-22T20:33:48.293Z,100738.64
2018-12-22T20:36:17.286Z,100738.12
2018-12-22T20:38:46.262Z,100741.67
2018-12-22T20:41:15.427Z,100749.73
2018-12-22T20:43:44.660Z,100754.27
2018-12-22T20:46:13.884Z,100748.88
2018-12-22T20:48:42.598Z,100753.92
2018-12-22T20:51:11.426Z,100756.13
2018-12-22T20:53:40.556Z,100758.45
2018-12-22T20:56:09.215Z,100761.63
2018-12-22T20:58:38.171Z,100752.98
2018-12-22T21:01:07.448Z,100757.10
2018-12-22T21:03:40.241Z,100758.30
2018-12-22T21:06:15.832Z,100760.99
2018-12-22T21:08:44.835Z,100760.66
2018-12-22T21:11:14.877Z,100772.28
2018-12-22T21:13:43.850Z,100773.63
2018-12-22T21:16:14.859Z,100776.91
2018-12-22T21:18:43.771Z,100767.64
2018-12-22T21:21:12.810Z,100771.19
2018-12-22T21:23:41.797Z,100773.88
2018-12-22T21:26:11.117Z,100763.23
2018-12-22T21:28:39.902Z,100778.03
2018-12-22T21:31:09.228Z,100779.90
2018-12-22T21:33:38.344Z,100780.72
2018-12-22T21:36:07.453Z,100774.52
2018-12-22T21:38:36.338Z,100777.70
2018-12-22T21:41:05.558Z,100775.86
2018-12-22T21:43:34.429Z,100777.70
2018-12-22T21:46:03.422Z,100775.98
2018-12-22T21:48:32.357Z,100775.98
2018-12-22T21:51:01.160Z,100775.98
2018-12-22T21:53:30.119Z,100780.50
2018-12-22T21:55:59.372Z,100775.98
2018-12-22T21:58:28.243Z,100783.19
2018-12-22T22:00:57.130Z,100776.46
2018-12-22T22:03:26.076Z,100777.32
2018-12-22T22:05:54.907Z,100784.05
2018-12-22T22:08:24.106Z,100789.92
2018-12-22T22:10:52.869Z,100788.94
2018-12-22T22:13:21.838Z,100789.92
2018-12-22T22:15:50.923Z,100790.78
2018-12-22T22:18:19.944Z,100785.39
2018-12-22T22:20:49.038Z,100786.73
2018-12-22T22:23:19.244Z,100787.59
2018-12-22T22:25:48.447Z,100785.39
2018-12-22T22:28:17.167Z,100787.22
2018-12-22T22:30:46.213Z,100788.57
2018-12-22T22:33:14.938Z,100791.78
2018-12-22T22:35:43.982Z,100791.41
2018-12-22T22:38:13.217Z,100792.27
2018-12-22T22:40:42.300Z,100794.95
2018-12-22T22:43:11.332Z,100785.54
2018-12-22T22:45:40.413Z,100787.86
2018-12-22T22:48:09.309Z,100782.85
2018-12-22T22:50:38.457Z,100787.86
2018-12-22T22:53:07.408Z,100788.72
2018-12-22T22:55:36.147Z,100791.41
2018-12-22T22:58:04.961Z,100791.03
2018-12-22T23:00:37.383Z,100792.27
2018-12-22T23:03:07.229Z,100789.20
2018-12-22T23:05:35.957Z,100787.38
2018-12-22T23:08:04.885Z,100788.72
2018-12-22T23:10:33.814Z,100789.20
2018-12-22T23:13:02.930Z,100787.38
2018-12-22T23:15:32.024Z,100787.00
2018-12-22T23:18:01.133Z,100794.59
2018-12-22T23:20:29.853Z,100797.27
2018-12-22T23:22:58.880Z,100800.34
2018-12-22T23:25:27.824Z,100797.27
2018-12-22T23:27:56.755Z,100797.27
2018-12-22T23:30:25.676Z,100792.38
2018-12-22T23:32:54.350Z,100795.07
2018-12-22T23:35:23.265Z,100796.41
2018-12-22T23:37:52.213Z,100790.17
2018-12-22T23:40:20.882Z,100799.48
2018-12-22T23:42:49.695Z,100797.65
2018-12-22T23:45:18.739Z,100789.58
2018-12-22T23:47:47.769Z,100792.27
2018-12-22T23:50:16.915Z,100792.98
2018-12-22T23:52:45.818Z,100789.43
2018-12-22T23:55:14.592Z,100795.67
2018-12-22T23:57:43.502Z,100799.56
